Hub


Voltar

 INFORMAÇÕES METEOROLÓGICAS

METAR FOR KT82


ADDS - METARS form results

(0750 UTC 25 August 2019)
Data provider http://aviationweather.gov/metar/data/
 
METAR text: KT82 250735Z AUTO 00000KT 10SM CLR 23/22 A2993 RMK AO2 T02260215
Conditions at: KT82 (FREDERICKSBURG , TX, US) observed 0735 UTC 25 August 2019
Temperature: 22.6°C (73°F)
Dewpoint: 21.5°C (71°F) [RH = 94%]
Pressure (altimeter): 29.93 inches Hg (1013.6 mb)
Winds: calm
Visibility: 10 or more miles (16+ km)
Ceiling: at least 12,000 feet AGL
Clouds: sky clear below 12,000 feet AGL
Weather: automated observation with no human augmentation;
there may or may not be significant weather present at this time

METAR text: KT82 250715Z AUTO 00000KT 10SM CLR 23/22 A2994 RMK AO2 T02270215
Conditions at: KT82 (FREDERICKSBURG , TX, US) observed 0715 UTC 25 August 2019
Temperature: 22.7°C (73°F)
Dewpoint: 21.5°C (71°F) [RH = 93%]
Pressure (altimeter): 29.94 inches Hg (1014.0 mb)
Winds: calm
Visibility: 10 or more miles (16+ km)
Ceiling: at least 12,000 feet AGL
Clouds: sky clear below 12,000 feet AGL
Weather: automated observation with no human augmentation;
there may or may not be significant weather present at this time

METAR text: KT82 250655Z AUTO 00000KT 10SM SCT018 23/22 A2994 RMK AO2 T02300217
Conditions at: KT82 (FREDERICKSBURG , TX, US) observed 0655 UTC 25 August 2019
Temperature: 23.0°C (73°F)
Dewpoint: 21.7°C (71°F) [RH = 92%]
Pressure (altimeter): 29.94 inches Hg (1014.0 mb)
Winds: calm
Visibility: 10 or more miles (16+ km)
Ceiling: at least 12,000 feet AGL
Clouds: scattered clouds at 1800 feet AGL
Weather: automated observation with no human augmentation;
there may or may not be significant weather present at this time


 MAPA DO AEROPORTO


 INFORMAÇÕES DA PISTA

Pista 14 Tamanho da pista 5002 ft Largura da pista 75 ft
Elevação da pista 1695 ft Ranhura da pista 0 ft Proa da pista 147
Pista 32 Tamanho da pista 5002 ft Largura da pista 75 ft
Elevação da pista 1677 ft Ranhura da pista 0 ft Proa da pista 327

 FREQUÊNCIAS DO AEROPORTO

Tipo A/D Nome HOUSTON CN Frequência 134.2 MHZ
Tipo AWOS Nome AWOS 3 Frequência 120 MHZ
Tipo UNIC Nome CTAF/UNICO Frequência 122.7 MHZ

 AUXÍLIOS DE NAVEGAÇÃO PRÓXIMOS AO AEROPORTO